createdAt,value
2022-11-30T00:00:42.716Z,16.35
2022-11-30T00:02:44.244Z,17.70
2022-11-30T00:04:45.928Z,17.15
2022-11-30T00:06:47.488Z,18.42
2022-11-30T00:08:52.102Z,18.08
2022-11-30T00:10:53.570Z,16.45
2022-11-30T00:12:55.022Z,16.83
2022-11-30T00:14:56.440Z,16.15
2022-11-30T00:16:57.902Z,18.35
2022-11-30T00:18:59.351Z,17.95
2022-11-30T00:21:05.982Z,15.68
2022-11-30T00:23:09.918Z,18.42
2022-11-30T00:25:11.369Z,17.80
2022-11-30T00:27:12.988Z,17.45
2022-11-30T00:29:14.361Z,18.30
2022-11-30T00:31:17.717Z,18.75
2022-11-30T00:33:19.253Z,17.15
2022-11-30T00:35:20.705Z,18.40
2022-11-30T00:37:22.231Z,18.63
2022-11-30T00:39:23.586Z,19.02
2022-11-30T00:41:25.022Z,16.70
2022-11-30T00:43:26.445Z,18.30
2022-11-30T00:45:27.792Z,19.23
2022-11-30T00:47:29.215Z,18.10
2022-11-30T00:49:30.687Z,19.13
2022-11-30T00:51:32.065Z,17.55
2022-11-30T00:53:33.513Z,18.77
2022-11-30T00:55:35.152Z,20.08
2022-11-30T00:57:36.552Z,17.38
2022-11-30T00:59:37.924Z,19.13
2022-11-30T01:01:39.363Z,18.83
2022-11-30T01:03:40.861Z,17.73
2022-11-30T01:05:43.304Z,18.73
2022-11-30T01:07:44.721Z,19.33
2022-11-30T01:09:46.130Z,20.33
2022-11-30T01:11:47.560Z,17.65
2022-11-30T01:13:49.052Z,16.95
2022-11-30T01:15:50.529Z,18.55
2022-11-30T01:17:52.004Z,20.20
2022-11-30T01:19:53.497Z,17.60
2022-11-30T01:21:54.959Z,18.70
2022-11-30T01:23:56.514Z,18.75
2022-11-30T01:25:58.012Z,19.67
2022-11-30T01:27:59.412Z,17.75
2022-11-30T01:30:00.910Z,20.23
2022-11-30T01:32:02.386Z,18.48
2022-11-30T01:34:03.886Z,18.70
2022-11-30T01:36:09.175Z,18.77
2022-11-30T01:38:10.561Z,19.25
2022-11-30T01:40:12.392Z,19.52
2022-11-30T01:42:16.956Z,16.88
2022-11-30T01:44:20.321Z,21.02
2022-11-30T01:46:40.147Z,17.00
2022-11-30T01:48:41.528Z,19.73
2022-11-30T01:50:44.596Z,17.55
2022-11-30T01:52:55.493Z,17.95
2022-11-30T01:54:56.820Z,18.88
2022-11-30T01:57:06.188Z,19.33
2022-11-30T01:59:07.679Z,18.08
2022-11-30T02:01:09.085Z,18.63
2022-11-30T02:03:30.728Z,20.48
2022-11-30T02:05:34.871Z,16.85
2022-11-30T02:07:36.360Z,19.10
2022-11-30T02:09:44.061Z,18.25
2022-11-30T02:11:45.821Z,17.25
2022-11-30T02:14:14.387Z,16.70
2022-11-30T02:16:24.693Z,17.35
2022-11-30T02:19:05.068Z,18.42
2022-11-30T02:21:15.847Z,17.25
2022-11-30T02:23:40.916Z,16.73
2022-11-30T02:25:59.093Z,16.10
2022-11-30T02:28:37.751Z,13.00
2022-11-30T02:30:46.486Z,14.68
2022-11-30T02:33:11.837Z,13.73
2022-11-30T02:35:17.146Z,14.82
2022-11-30T02:37:20.132Z,14.55
2022-11-30T02:39:22.429Z,13.90
2022-11-30T02:41:23.903Z,13.38
2022-11-30T02:43:28.296Z,14.65
2022-11-30T02:45:35.757Z,14.40
2022-11-30T02:47:45.444Z,14.68
2022-11-30T02:50:04.523Z,17.08
2022-11-30T02:52:08.081Z,19.23
2022-11-30T02:54:10.209Z,18.35
2022-11-30T02:56:11.636Z,18.55
2022-11-30T02:58:15.690Z,18.85
2022-11-30T03:00:17.529Z,17.55
2022-11-30T03:02:19.162Z,18.70
2022-11-30T03:04:20.591Z,18.55
2022-11-30T03:06:22.136Z,19.02
2022-11-30T03:08:23.621Z,19.02
2022-11-30T03:10:25.325Z,17.08
2022-11-30T03:12:26.834Z,16.15
2022-11-30T03:14:28.248Z,14.38
2022-11-30T03:16:29.618Z,14.63
2022-11-30T03:18:32.563Z,14.32
2022-11-30T03:20:34.166Z,12.48
2022-11-30T03:22:35.918Z,13.43
2022-11-30T03:24:37.327Z,13.23
2022-11-30T03:26:38.775Z,12.52
2022-11-30T03:28:40.240Z,12.50
2022-11-30T03:30:41.683Z,12.73
2022-11-30T03:32:44.200Z,11.23
2022-11-30T03:34:45.956Z,11.18
2022-11-30T03:36:47.601Z,12.18
2022-11-30T03:38:49.090Z,11.10
2022-11-30T03:40:50.485Z,11.75
2022-11-30T03:42:51.860Z,13.10
2022-11-30T03:44:53.219Z,12.73
2022-11-30T03:46:54.654Z,13.55
2022-11-30T03:48:56.090Z,13.15
2022-11-30T03:50:57.674Z,15.18
2022-11-30T03:52:59.077Z,12.98
2022-11-30T03:55:00.423Z,14.77
2022-11-30T03:57:01.806Z,15.52
2022-11-30T03:59:03.211Z,15.05
2022-11-30T04:01:14.148Z,14.60
2022-11-30T04:03:15.952Z,13.90
2022-11-30T04:05:17.863Z,15.05
2022-11-30T04:07:19.618Z,14.15
2022-11-30T04:09:21.025Z,15.40
2022-11-30T04:11:22.437Z,14.95
2022-11-30T04:13:24.984Z,15.88
2022-11-30T04:15:26.326Z,15.15
2022-11-30T04:17:27.744Z,16.30
2022-11-30T04:19:29.183Z,15.90
2022-11-30T04:21:30.554Z,16.23
2022-11-30T04:23:37.820Z,16.25
2022-11-30T04:25:40.772Z,16.52
2022-11-30T04:27:45.973Z,18.23
2022-11-30T04:29:47.394Z,16.63
2022-11-30T04:31:48.988Z,16.98
2022-11-30T04:33:54.270Z,17.33
2022-11-30T04:35:58.561Z,17.13
2022-11-30T04:38:01.182Z,16.38
2022-11-30T04:40:02.857Z,17.05
2022-11-30T04:42:04.425Z,17.30
2022-11-30T04:44:05.820Z,17.02
2022-11-30T04:46:07.402Z,16.77
2022-11-30T04:48:08.947Z,17.38
2022-11-30T04:50:10.655Z,17.02
2022-11-30T04:52:12.070Z,16.23
2022-11-30T04:54:13.493Z,17.13
2022-11-30T04:56:14.881Z,16.42
2022-11-30T04:58:16.290Z,17.05
2022-11-30T05:00:19.405Z,17.13
2022-11-30T05:02:20.817Z,16.55
2022-11-30T05:04:22.178Z,18.30
2022-11-30T05:06:23.621Z,16.83
2022-11-30T05:08:25.005Z,16.83
2022-11-30T05:10:27.911Z,16.73
2022-11-30T05:12:29.293Z,15.95
2022-11-30T05:14:30.732Z,15.90
2022-11-30T05:16:32.191Z,16.17
2022-11-30T05:18:33.677Z,16.23
2022-11-30T05:20:35.075Z,15.52
2022-11-30T05:22:36.577Z,15.80
2022-11-30T05:24:38.008Z,16.13
2022-11-30T05:26:39.439Z,16.83
2022-11-30T05:28:40.976Z,16.85
2022-11-30T05:30:43.346Z,15.90
2022-11-30T05:32:44.785Z,15.10
2022-11-30T05:34:51.156Z,15.65
2022-11-30T05:36:53.280Z,15.95
2022-11-30T05:38:54.767Z,15.18
2022-11-30T05:41:02.627Z,15.77
2022-11-30T05:43:05.893Z,16.33
2022-11-30T05:45:07.836Z,15.00
2022-11-30T05:47:09.469Z,16.08
2022-11-30T05:49:10.859Z,16.48
2022-11-30T05:51:17.372Z,16.35
2022-11-30T05:53:18.792Z,16.33
2022-11-30T05:55:20.155Z,17.25
2022-11-30T05:57:21.609Z,15.90
2022-11-30T05:59:23.259Z,15.45
2022-11-30T06:01:27.208Z,15.93
2022-11-30T06:03:30.078Z,16.63
2022-11-30T06:05:35.833Z,16.45
2022-11-30T06:07:37.401Z,15.85
2022-11-30T06:09:39.733Z,16.52
2022-11-30T06:11:41.109Z,16.00
2022-11-30T06:13:43.075Z,15.52
2022-11-30T06:15:52.997Z,14.70
2022-11-30T06:17:55.550Z,15.30
2022-11-30T06:19:57.012Z,15.00
2022-11-30T06:21:58.430Z,15.63
2022-11-30T06:24:00.762Z,16.00
2022-11-30T06:26:06.663Z,16.73
2022-11-30T06:28:11.673Z,17.10
2022-11-30T06:30:13.720Z,15.52
2022-11-30T06:32:15.169Z,15.05
2022-11-30T06:34:16.604Z,14.95
2022-11-30T06:36:24.976Z,15.85
2022-11-30T06:38:26.515Z,15.23
2022-11-30T06:40:28.301Z,15.50
2022-11-30T06:42:31.124Z,15.00
2022-11-30T06:44:32.540Z,15.68
2022-11-30T06:46:34.136Z,15.32
2022-11-30T06:48:36.071Z,16.50
2022-11-30T06:50:37.608Z,15.93
2022-11-30T06:52:38.993Z,15.10
2022-11-30T06:54:40.381Z,15.70
2022-11-30T06:56:41.767Z,15.70
2022-11-30T06:58:43.128Z,15.23
2022-11-30T07:00:45.171Z,15.52
2022-11-30T07:02:46.611Z,14.95
2022-11-30T07:04:48.232Z,16.80
2022-11-30T07:06:49.854Z,15.52
2022-11-30T07:08:51.249Z,15.70
2022-11-30T07:10:52.634Z,14.80
2022-11-30T07:12:54.900Z,16.38
2022-11-30T07:14:56.486Z,15.20
2022-11-30T07:16:57.972Z,16.40
2022-11-30T07:18:59.343Z,17.30
2022-11-30T07:21:01.808Z,16.33
2022-11-30T07:23:22.578Z,16.13
2022-11-30T07:25:42.313Z,16.50
2022-11-30T07:27:43.696Z,15.60
2022-11-30T07:29:45.390Z,16.90
2022-11-30T07:31:51.775Z,16.40
2022-11-30T07:33:54.222Z,15.52
2022-11-30T07:35:55.611Z,15.00
2022-11-30T07:37:57.012Z,16.77
2022-11-30T07:39:58.373Z,16.77
2022-11-30T07:41:59.768Z,16.50
2022-11-30T07:44:01.116Z,16.45
2022-11-30T07:46:02.759Z,16.15
2022-11-30T07:48:04.205Z,19.73
2022-11-30T07:50:06.205Z,17.38
2022-11-30T07:59:06.423Z,17.80
2022-11-30T08:01:14.076Z,18.15
2022-11-30T08:03:15.539Z,20.85
2022-11-30T08:05:17.415Z,20.33
2022-11-30T08:07:18.870Z,19.63
2022-11-30T08:09:21.005Z,21.73
2022-11-30T08:11:25.361Z,22.08
2022-11-30T08:13:26.961Z,22.15
2022-11-30T08:15:32.571Z,23.10
2022-11-30T08:17:34.860Z,22.90
2022-11-30T08:19:36.277Z,23.27
2022-11-30T08:21:38.096Z,23.10
2022-11-30T08:23:41.482Z,22.58
2022-11-30T08:25:43.016Z,21.50
2022-11-30T08:27:44.712Z,21.92
2022-11-30T08:29:46.302Z,22.73
2022-11-30T08:31:47.697Z,22.20
2022-11-30T08:33:49.965Z,21.52
2022-11-30T08:35:51.365Z,24.50
2022-11-30T08:37:52.736Z,23.38
2022-11-30T08:39:54.105Z,25.27
2022-11-30T08:41:55.526Z,22.95
2022-11-30T08:43:57.387Z,23.63
2022-11-30T08:45:58.906Z,23.63
2022-11-30T08:48:03.792Z,23.80
2022-11-30T08:50:05.682Z,24.17
2022-11-30T08:52:22.406Z,24.67
2022-11-30T08:54:24.896Z,23.13
2022-11-30T08:56:26.459Z,24.63
2022-11-30T08:58:31.215Z,24.33
2022-11-30T09:00:32.663Z,22.58
2022-11-30T09:02:34.101Z,24.20
2022-11-30T09:04:35.555Z,23.67
2022-11-30T09:06:37.977Z,23.80
2022-11-30T09:08:41.165Z,22.63
2022-11-30T09:10:42.671Z,21.88
2022-11-30T09:12:44.177Z,22.20
2022-11-30T09:14:46.296Z,20.38
2022-11-30T09:16:49.058Z,22.33
2022-11-30T09:18:51.620Z,21.05
2022-11-30T09:20:53.553Z,22.48
2022-11-30T09:22:54.961Z,21.92
2022-11-30T09:24:56.461Z,21.08
2022-11-30T09:26:57.966Z,21.05
2022-11-30T09:28:59.994Z,23.45
2022-11-30T09:31:07.639Z,20.83
2022-11-30T09:33:09.300Z,21.52
2022-11-30T09:35:12.972Z,21.38
2022-11-30T09:37:14.578Z,21.90
2022-11-30T09:39:16.301Z,20.92
2022-11-30T09:41:59.459Z,19.92
2022-11-30T09:44:19.960Z,20.55
2022-11-30T09:46:28.255Z,20.42
2022-11-30T09:48:41.402Z,20.55
2022-11-30T09:50:44.903Z,20.35
2022-11-30T09:53:01.198Z,20.70
2022-11-30T09:55:09.282Z,19.52
2022-11-30T09:57:39.668Z,18.50
2022-11-30T09:59:51.453Z,18.05
2022-11-30T10:01:56.872Z,18.20
2022-11-30T10:03:58.774Z,19.63
2022-11-30T10:06:08.731Z,20.02
2022-11-30T10:08:42.911Z,17.55
2022-11-30T10:11:10.685Z,16.30
2022-11-30T10:13:21.253Z,16.77
2022-11-30T10:15:39.005Z,18.80
2022-11-30T10:17:53.445Z,19.75
2022-11-30T10:20:07.537Z,17.55
2022-11-30T10:22:24.162Z,20.40
2022-11-30T10:25:08.616Z,20.90
2022-11-30T10:27:35.891Z,20.95
2022-11-30T10:29:40.517Z,20.67
2022-11-30T10:31:43.219Z,19.70
2022-11-30T10:33:51.116Z,19.73
2022-11-30T10:35:56.429Z,21.15
2022-11-30T10:38:00.534Z,20.58
2022-11-30T10:40:12.272Z,21.10
2022-11-30T10:42:21.605Z,21.83
2022-11-30T10:44:25.963Z,20.77
2022-11-30T10:46:38.707Z,19.42
2022-11-30T10:48:47.803Z,21.48
2022-11-30T10:50:49.362Z,20.23
2022-11-30T10:52:56.869Z,21.88
2022-11-30T10:55:04.138Z,20.08
2022-11-30T10:57:07.566Z,16.00
2022-11-30T10:59:17.134Z,17.35
2022-11-30T11:01:36.741Z,14.40
2022-11-30T11:05:40.089Z,13.20
2022-11-30T11:07:49.665Z,13.52
2022-11-30T11:09:52.418Z,12.80
2022-11-30T11:11:59.480Z,11.82
2022-11-30T11:14:22.439Z,12.48
2022-11-30T11:16:23.938Z,11.23
2022-11-30T11:18:33.328Z,14.02
2022-11-30T11:20:38.913Z,12.95
2022-11-30T11:22:43.785Z,12.43
2022-11-30T11:24:45.956Z,10.18
2022-11-30T11:26:52.046Z,10.90
2022-11-30T11:28:55.963Z,8.90
2022-11-30T11:30:58.251Z,8.85
2022-11-30T11:33:11.973Z,10.68
2022-11-30T11:35:38.162Z,9.07
2022-11-30T11:37:41.535Z,8.98
2022-11-30T11:39:42.989Z,9.20
2022-11-30T11:41:44.458Z,9.60
2022-11-30T11:44:02.661Z,8.93
2022-11-30T11:46:13.674Z,9.00
2022-11-30T11:48:37.981Z,8.82
2022-11-30T11:53:22.932Z,7.82
2022-11-30T11:55:24.539Z,8.45
2022-11-30T11:57:42.809Z,8.98
2022-11-30T12:00:16.677Z,9.00
2022-11-30T12:02:39.549Z,8.70
2022-11-30T12:05:03.126Z,9.15
2022-11-30T12:07:17.981Z,8.82
2022-11-30T12:09:29.575Z,9.45
2022-11-30T12:11:46.979Z,8.52
2022-11-30T12:13:48.853Z,9.20
2022-11-30T12:16:12.065Z,9.63
2022-11-30T12:18:24.905Z,8.93
2022-11-30T12:20:47.684Z,9.55
2022-11-30T12:23:26.064Z,8.57
2022-11-30T12:25:37.015Z,7.95
2022-11-30T12:27:55.394Z,7.63
2022-11-30T12:30:18.320Z,8.23
2022-11-30T12:32:47.383Z,7.38
2022-11-30T12:34:54.889Z,7.05
2022-11-30T12:37:07.847Z,8.35
2022-11-30T12:39:35.651Z,7.13
2022-11-30T12:41:40.123Z,6.97
2022-11-30T12:44:00.592Z,6.55
2022-11-30T12:46:29.372Z,6.43
2022-11-30T12:48:48.288Z,6.20
2022-11-30T12:51:19.496Z,6.82
2022-11-30T12:53:32.744Z,6.47
2022-11-30T12:58:17.342Z,6.05
2022-11-30T13:00:23.121Z,6.40
2022-11-30T13:02:53.885Z,5.55
2022-11-30T13:05:10.346Z,5.18
2022-11-30T13:07:16.971Z,5.22
2022-11-30T13:09:36.927Z,6.25
2022-11-30T13:11:41.559Z,5.88
2022-11-30T13:13:51.108Z,5.13
2022-11-30T13:15:52.895Z,4.60
2022-11-30T13:17:55.618Z,5.25
2022-11-30T13:20:14.962Z,6.20
2022-11-30T13:22:22.221Z,7.15
2022-11-30T13:24:29.620Z,6.10
2022-11-30T13:26:51.288Z,5.93
2022-11-30T13:29:14.564Z,4.57
2022-11-30T13:31:18.788Z,4.82
2022-11-30T13:33:35.376Z,5.45
2022-11-30T13:35:36.737Z,4.82
2022-11-30T13:37:38.431Z,4.63
2022-11-30T13:39:59.306Z,4.88
2022-11-30T13:42:00.654Z,4.68
2022-11-30T13:44:03.121Z,4.75
2022-11-30T13:46:13.391Z,5.43
2022-11-30T13:48:34.122Z,6.20
2022-11-30T13:50:39.835Z,6.57
2022-11-30T13:53:00.443Z,5.78
2022-11-30T13:55:41.879Z,6.38
2022-11-30T13:58:07.738Z,5.53
2022-11-30T14:02:41.608Z,5.93
2022-11-30T14:04:47.510Z,5.13
2022-11-30T14:06:50.307Z,5.32
2022-11-30T14:08:51.760Z,5.07
2022-11-30T14:10:54.846Z,5.63
2022-11-30T14:13:00.245Z,6.07
2022-11-30T14:15:02.662Z,5.15
2022-11-30T14:17:09.356Z,6.63
2022-11-30T14:19:10.892Z,5.70
2022-11-30T14:21:21.638Z,5.20
2022-11-30T14:23:31.343Z,5.38
2022-11-30T14:25:35.241Z,5.53
2022-11-30T14:27:40.862Z,5.80
2022-11-30T14:29:43.473Z,5.05
2022-11-30T14:31:52.589Z,6.07
2022-11-30T14:33:55.623Z,5.32
2022-11-30T14:35:59.402Z,6.75
2022-11-30T14:38:01.321Z,6.40
2022-11-30T14:40:06.075Z,5.80
2022-11-30T14:42:20.542Z,6.05
2022-11-30T14:44:22.027Z,6.05
2022-11-30T14:46:26.636Z,6.13
2022-11-30T14:48:28.177Z,6.97
2022-11-30T14:50:29.798Z,6.68
2022-11-30T14:52:56.185Z,7.00
2022-11-30T14:55:20.632Z,5.72
2022-11-30T14:57:33.954Z,6.38
2022-11-30T15:01:43.368Z,6.10
2022-11-30T15:03:46.282Z,5.22
2022-11-30T15:05:51.636Z,5.78
2022-11-30T15:07:53.716Z,4.85
2022-11-30T15:10:08.254Z,5.90
2022-11-30T15:12:09.974Z,5.85
2022-11-30T15:14:11.705Z,5.80
2022-11-30T15:16:50.225Z,6.03
2022-11-30T15:18:53.795Z,5.72
2022-11-30T15:21:03.516Z,5.57
2022-11-30T15:23:05.107Z,5.60
2022-11-30T15:25:12.393Z,6.55
2022-11-30T15:27:18.552Z,6.40
2022-11-30T15:29:28.141Z,6.22
2022-11-30T15:31:36.277Z,6.35
2022-11-30T15:33:43.012Z,6.07
2022-11-30T15:36:13.721Z,6.22
2022-11-30T15:38:09.022Z,6.75
2022-11-30T15:40:15.932Z,6.45
2022-11-30T15:42:23.493Z,6.57
2022-11-30T15:44:47.292Z,7.28
2022-11-30T15:46:55.838Z,6.68
2022-11-30T15:49:05.995Z,7.18
2022-11-30T15:51:22.564Z,7.07
2022-11-30T15:53:28.422Z,7.57
2022-11-30T15:56:05.132Z,7.53
2022-11-30T15:58:30.206Z,6.97
2022-11-30T16:00:31.750Z,7.63
2022-11-30T16:02:35.708Z,7.38
2022-11-30T16:04:58.699Z,7.47
2022-11-30T16:07:00.257Z,7.30
2022-11-30T16:09:23.078Z,7.85
2022-11-30T16:11:24.552Z,7.32
2022-11-30T16:13:30.834Z,8.18
2022-11-30T16:15:35.980Z,7.65
2022-11-30T16:17:37.392Z,7.65
2022-11-30T16:19:38.855Z,8.63
2022-11-30T16:21:40.953Z,7.82
2022-11-30T16:23:42.851Z,8.60
2022-11-30T16:25:46.258Z,10.25
2022-11-30T16:27:48.435Z,8.18
2022-11-30T16:29:52.781Z,7.50
2022-11-30T16:31:54.419Z,7.43
2022-11-30T16:33:55.894Z,6.25
2022-11-30T16:35:57.275Z,7.50
2022-11-30T16:37:58.679Z,7.45
2022-11-30T16:40:00.104Z,7.97
2022-11-30T16:42:01.665Z,7.78
2022-11-30T16:44:08.372Z,7.38
2022-11-30T16:46:12.097Z,7.05
2022-11-30T16:48:16.544Z,7.60
2022-11-30T16:50:19.549Z,7.15
2022-11-30T16:52:20.950Z,7.25
2022-11-30T16:54:22.418Z,6.82
2022-11-30T16:56:24.345Z,6.70
2022-11-30T16:58:25.783Z,6.45
2022-11-30T17:00:28.261Z,6.03
2022-11-30T17:02:29.812Z,7.28
2022-11-30T17:04:31.310Z,5.72
2022-11-30T17:06:32.709Z,6.55
2022-11-30T17:08:34.215Z,5.93
2022-11-30T17:10:36.950Z,6.88
2022-11-30T17:12:38.879Z,6.32
2022-11-30T17:15:05.186Z,7.32
2022-11-30T17:17:06.723Z,7.22
2022-11-30T17:19:09.285Z,7.53
2022-11-30T17:21:14.447Z,7.13
2022-11-30T17:23:15.938Z,7.55
2022-11-30T17:25:21.152Z,6.90
2022-11-30T17:27:22.588Z,7.47
2022-11-30T17:29:23.999Z,7.38
2022-11-30T17:31:25.564Z,8.00
2022-11-30T17:33:31.582Z,7.47
2022-11-30T17:35:33.028Z,8.07
2022-11-30T17:37:34.805Z,7.55
2022-11-30T17:39:36.629Z,8.50
2022-11-30T17:41:38.039Z,9.80
2022-11-30T17:43:39.473Z,9.32
2022-11-30T17:45:41.019Z,8.88
2022-11-30T17:47:42.574Z,9.57
2022-11-30T17:49:44.172Z,10.27
2022-11-30T17:51:45.640Z,9.80
2022-11-30T17:53:47.103Z,9.80
2022-11-30T17:55:48.957Z,10.90
2022-11-30T17:57:50.319Z,10.57
2022-11-30T17:59:51.726Z,9.75
2022-11-30T18:01:53.170Z,9.70
2022-11-30T18:03:55.796Z,9.15
2022-11-30T18:06:01.570Z,9.10
2022-11-30T18:08:03.214Z,9.40
2022-11-30T18:10:05.409Z,8.98
2022-11-30T18:12:06.855Z,9.82
2022-11-30T18:14:08.456Z,10.20
2022-11-30T18:16:21.048Z,9.52
2022-11-30T18:18:22.480Z,8.20
2022-11-30T18:20:23.929Z,8.80
2022-11-30T18:22:25.548Z,8.70
2022-11-30T18:24:26.999Z,8.73
2022-11-30T18:26:28.468Z,8.52
2022-11-30T18:28:29.994Z,8.73
2022-11-30T18:30:31.390Z,11.00
2022-11-30T18:32:32.813Z,8.77
2022-11-30T18:34:34.476Z,8.50
2022-11-30T18:36:35.865Z,8.80
2022-11-30T18:38:38.852Z,9.43
2022-11-30T18:40:40.426Z,8.93
2022-11-30T18:42:41.876Z,8.07
2022-11-30T18:44:43.357Z,8.05
2022-11-30T18:46:44.984Z,6.88
2022-11-30T18:48:50.064Z,7.55
2022-11-30T18:50:52.633Z,7.25
2022-11-30T18:52:55.514Z,7.55
2022-11-30T18:54:56.861Z,8.20
2022-11-30T18:56:58.279Z,6.97
2022-11-30T18:59:02.920Z,7.15
2022-11-30T19:01:10.245Z,7.18
2022-11-30T19:03:11.700Z,7.03
2022-11-30T19:05:31.429Z,8.23
2022-11-30T19:07:34.167Z,7.00
2022-11-30T19:09:35.687Z,7.45
2022-11-30T19:11:38.609Z,7.65
2022-11-30T19:13:39.980Z,8.82
2022-11-30T19:15:43.116Z,7.43
2022-11-30T19:17:44.489Z,7.95
2022-11-30T19:20:11.715Z,6.72
2022-11-30T19:22:13.331Z,7.65
2022-11-30T19:24:15.961Z,7.70
2022-11-30T19:26:17.461Z,7.35
2022-11-30T19:28:19.859Z,7.28
2022-11-30T19:30:21.378Z,7.78
2022-11-30T19:32:22.791Z,7.13
2022-11-30T19:34:24.269Z,7.25
2022-11-30T19:36:27.971Z,8.95
2022-11-30T19:38:29.494Z,8.90
2022-11-30T19:40:31.269Z,8.23
2022-11-30T19:42:32.671Z,7.47
2022-11-30T19:44:34.133Z,8.43
2022-11-30T19:46:35.640Z,8.07
2022-11-30T19:48:37.882Z,7.65
2022-11-30T19:50:39.237Z,7.97
2022-11-30T19:52:40.704Z,7.88
2022-11-30T19:54:42.210Z,7.95
2022-11-30T19:56:44.254Z,7.57
2022-11-30T19:58:46.075Z,8.52
2022-11-30T20:00:47.591Z,8.32
2022-11-30T20:02:50.121Z,8.25
2022-11-30T20:04:54.052Z,8.90
2022-11-30T20:06:55.435Z,10.10
2022-11-30T20:08:57.331Z,9.80
2022-11-30T20:11:02.738Z,9.38
2022-11-30T20:13:04.120Z,9.88
2022-11-30T20:15:06.687Z,9.27
2022-11-30T20:17:08.603Z,9.65
2022-11-30T20:19:10.129Z,11.18
2022-11-30T20:21:21.060Z,11.50
2022-11-30T20:23:22.464Z,11.35
2022-11-30T20:25:24.059Z,11.43
2022-11-30T20:27:25.512Z,11.65
2022-11-30T20:29:27.045Z,12.48
2022-11-30T20:31:30.912Z,12.50
2022-11-30T20:33:33.368Z,10.73
2022-11-30T20:35:36.301Z,12.82
2022-11-30T20:37:37.708Z,13.73
2022-11-30T20:39:45.328Z,12.48
2022-11-30T20:41:47.305Z,12.70
2022-11-30T20:43:50.581Z,13.70
2022-11-30T20:45:52.596Z,12.60
2022-11-30T20:47:54.022Z,13.40
2022-11-30T20:49:55.443Z,13.65
2022-11-30T20:51:56.837Z,13.27
2022-11-30T20:54:03.489Z,13.73
2022-11-30T20:56:05.476Z,14.15
2022-11-30T20:58:08.893Z,13.77
2022-11-30T21:00:13.290Z,14.07
2022-11-30T21:02:15.242Z,13.73
2022-11-30T21:04:16.940Z,14.30
2022-11-30T21:06:18.308Z,12.90
2022-11-30T21:08:19.815Z,13.30
2022-11-30T21:10:21.275Z,14.45
2022-11-30T21:12:22.701Z,14.40
2022-11-30T21:14:25.274Z,14.50
2022-11-30T21:16:29.480Z,14.45
2022-11-30T21:18:31.281Z,13.38
2022-11-30T21:20:32.787Z,15.73
2022-11-30T21:22:34.269Z,15.20
2022-11-30T21:24:35.914Z,14.90
2022-11-30T21:26:42.886Z,14.82
2022-11-30T21:30:46.506Z,12.82
2022-11-30T21:32:48.007Z,13.88
2022-11-30T21:34:50.339Z,13.98
2022-11-30T21:36:53.326Z,14.00
2022-11-30T21:39:06.051Z,13.55
2022-11-30T21:41:10.682Z,13.40
2022-11-30T21:43:12.118Z,13.35
2022-11-30T21:45:14.066Z,12.68
2022-11-30T21:47:15.609Z,13.55
2022-11-30T21:49:17.371Z,12.68
2022-11-30T21:51:24.284Z,11.95
2022-11-30T21:53:26.396Z,11.52
2022-11-30T21:55:27.767Z,11.48
2022-11-30T21:57:29.119Z,13.27
2022-11-30T21:59:33.545Z,11.40
2022-11-30T22:01:40.065Z,12.55
2022-11-30T22:03:42.152Z,11.80
2022-11-30T22:05:43.629Z,11.20
2022-11-30T22:07:49.598Z,11.20
2022-11-30T22:09:51.085Z,12.35
2022-11-30T22:11:52.457Z,12.85
2022-11-30T22:13:57.637Z,12.85
2022-11-30T22:16:04.856Z,12.77
2022-11-30T22:18:06.283Z,13.02
2022-11-30T22:20:08.156Z,13.35
2022-11-30T22:22:11.690Z,13.13
2022-11-30T22:24:14.204Z,13.45
2022-11-30T22:26:26.830Z,12.68
2022-11-30T22:28:28.266Z,12.23
2022-11-30T22:30:29.714Z,14.07
2022-11-30T22:32:31.105Z,15.48
2022-11-30T22:34:32.590Z,12.93
2022-11-30T22:36:40.160Z,13.95
2022-11-30T22:38:42.286Z,13.02
2022-11-30T22:40:44.376Z,14.20
2022-11-30T22:42:45.803Z,13.65
2022-11-30T22:44:47.245Z,14.88
2022-11-30T22:46:48.928Z,15.27
2022-11-30T22:48:50.742Z,14.82
2022-11-30T22:50:54.879Z,14.35
2022-11-30T22:53:02.967Z,14.98
2022-11-30T22:55:05.309Z,15.20
2022-11-30T22:57:06.876Z,14.57
2022-11-30T22:59:12.455Z,13.43
2022-11-30T23:01:23.293Z,15.27
2022-11-30T23:03:28.707Z,14.82
2022-11-30T23:05:30.170Z,15.93
2022-11-30T23:07:32.384Z,15.55
2022-11-30T23:09:33.971Z,15.13
2022-11-30T23:11:37.491Z,16.00
2022-11-30T23:13:40.488Z,16.63
2022-11-30T23:15:42.164Z,14.98
2022-11-30T23:17:43.701Z,15.13
2022-11-30T23:19:45.722Z,14.13
2022-11-30T23:21:48.520Z,14.43
2022-11-30T23:23:50.221Z,16.17
2022-11-30T23:25:51.692Z,16.17
2022-11-30T23:27:53.711Z,15.38
2022-11-30T23:29:55.156Z,15.90
2022-11-30T23:31:56.565Z,15.45
2022-11-30T23:33:58.209Z,17.00
2022-11-30T23:35:59.596Z,16.73
2022-11-30T23:38:00.994Z,16.35
2022-11-30T23:40:02.419Z,16.83
2022-11-30T23:42:03.995Z,16.10
2022-11-30T23:44:06.166Z,17.58
2022-11-30T23:46:09.828Z,17.10
2022-11-30T23:48:11.247Z,16.30
2022-11-30T23:50:12.651Z,16.83
2022-11-30T23:52:14.129Z,19.05
2022-11-30T23:54:18.288Z,17.10
2022-11-30T23:56:21.495Z,16.25
2022-11-30T23:58:26.596Z,17.15
